createdAt,value
2017-10-04T00:01:36.682Z,5.70
2017-10-04T00:04:04.296Z,6.60
2017-10-04T00:06:30.620Z,5.68
2017-10-04T00:08:57.858Z,6.18
2017-10-04T00:11:24.152Z,5.93
2017-10-04T00:13:50.415Z,5.20
2017-10-04T00:16:16.695Z,5.40
2017-10-04T00:18:42.982Z,6.10
2017-10-04T00:21:09.274Z,6.18
2017-10-04T00:23:36.501Z,5.70
2017-10-04T00:26:02.796Z,6.15
2017-10-04T00:28:29.042Z,6.18
2017-10-04T00:30:55.358Z,6.07
2017-10-04T00:33:21.645Z,6.45
2017-10-04T00:35:47.916Z,5.95
2017-10-04T00:38:14.220Z,6.40
2017-10-04T00:40:40.484Z,6.35
2017-10-04T00:43:06.794Z,6.80
2017-10-04T00:45:33.091Z,6.55
2017-10-04T00:47:59.382Z,6.78
2017-10-04T00:50:25.656Z,6.50
2017-10-04T00:52:51.920Z,6.20
2017-10-04T00:55:18.229Z,5.78
2017-10-04T00:57:44.553Z,5.90
2017-10-04T01:00:10.857Z,6.10
2017-10-04T01:02:37.518Z,5.78
2017-10-04T01:05:03.799Z,6.25
2017-10-04T01:07:30.075Z,6.43
2017-10-04T01:09:56.357Z,5.60
2017-10-04T01:12:22.656Z,6.18
2017-10-04T01:14:48.929Z,5.35
2017-10-04T01:17:15.252Z,5.95
2017-10-04T01:19:41.550Z,5.97
2017-10-04T01:22:07.875Z,6.07
2017-10-04T01:24:34.702Z,5.68
2017-10-04T01:27:00.999Z,5.75
2017-10-04T01:29:27.680Z,5.82
2017-10-04T01:31:53.927Z,5.28
2017-10-04T01:34:20.182Z,5.75
2017-10-04T01:36:46.443Z,6.00
2017-10-04T01:39:12.716Z,5.10
2017-10-04T01:41:38.977Z,5.50
2017-10-04T01:44:05.631Z,5.70
2017-10-04T01:46:32.241Z,5.75
2017-10-04T01:48:59.099Z,5.78
2017-10-04T01:51:25.734Z,6.10
2017-10-04T01:53:52.413Z,6.30
2017-10-04T01:56:18.715Z,5.97
2017-10-04T01:58:44.987Z,5.45
2017-10-04T02:01:11.307Z,6.60
2017-10-04T02:03:37.566Z,5.28
2017-10-04T02:06:03.838Z,5.62
2017-10-04T02:08:30.100Z,5.35
2017-10-04T02:10:56.383Z,5.25
2017-10-04T02:13:23.006Z,5.65
2017-10-04T02:15:49.671Z,4.93
2017-10-04T02:18:15.947Z,5.30
2017-10-04T02:20:42.199Z,5.10
2017-10-04T02:23:08.465Z,5.82
2017-10-04T02:25:35.349Z,6.15
2017-10-04T02:28:01.612Z,5.50
2017-10-04T02:30:28.264Z,6.12
2017-10-04T02:32:54.558Z,5.40
2017-10-04T02:35:20.846Z,5.72
2017-10-04T02:37:47.126Z,6.10
2017-10-04T02:40:13.402Z,6.37
2017-10-04T02:42:39.680Z,6.53
2017-10-04T02:45:05.967Z,6.37
2017-10-04T02:47:32.230Z,6.47
2017-10-04T02:49:58.512Z,5.12
2017-10-04T02:52:24.764Z,5.78
2017-10-04T02:54:51.083Z,5.12
2017-10-04T02:57:17.381Z,6.00
2017-10-04T02:59:44.041Z,5.65
2017-10-04T03:02:10.343Z,6.05
2017-10-04T03:04:36.980Z,5.82
2017-10-04T03:07:03.275Z,5.53
2017-10-04T03:09:29.525Z,5.70
2017-10-04T03:11:55.784Z,5.97
2017-10-04T03:14:22.033Z,5.68
2017-10-04T03:16:48.290Z,6.50
2017-10-04T03:19:14.552Z,5.75
2017-10-04T03:21:42.206Z,6.50
2017-10-04T03:24:08.484Z,6.40
2017-10-04T03:26:34.745Z,7.50
2017-10-04T03:29:01.041Z,6.55
2017-10-04T03:31:27.354Z,6.12
2017-10-04T03:33:53.619Z,7.57
2017-10-04T03:36:20.864Z,8.60
2017-10-04T03:38:47.144Z,7.75
2017-10-04T03:41:13.799Z,7.75
2017-10-04T03:43:40.067Z,6.70
2017-10-04T03:46:06.335Z,6.62
2017-10-04T03:48:32.647Z,7.22
2017-10-04T03:50:58.896Z,7.07
2017-10-04T03:53:25.548Z,6.60
2017-10-04T03:55:51.847Z,6.07
2017-10-04T03:58:18.098Z,7.00
2017-10-04T04:00:44.353Z,5.40
2017-10-04T04:03:10.611Z,7.30
2017-10-04T04:05:36.877Z,6.95
2017-10-04T04:08:03.542Z,6.95
2017-10-04T04:10:29.823Z,6.65
2017-10-04T04:12:56.892Z,6.40
2017-10-04T04:15:23.175Z,7.10
2017-10-04T04:17:49.452Z,7.53
2017-10-04T04:20:16.124Z,8.30
2017-10-04T04:22:42.410Z,8.48
2017-10-04T04:25:08.686Z,7.90
2017-10-04T04:27:35.651Z,7.72
2017-10-04T04:30:01.949Z,7.78
2017-10-04T04:32:28.212Z,6.45
2017-10-04T04:34:54.464Z,6.62
2017-10-04T04:37:21.690Z,6.30
2017-10-04T04:39:47.956Z,7.97
2017-10-04T04:42:14.608Z,7.35
2017-10-04T04:44:41.276Z,8.68
2017-10-04T04:47:07.564Z,7.65
2017-10-04T04:49:33.846Z,7.68
2017-10-04T04:52:01.007Z,7.47
2017-10-04T04:54:27.262Z,6.93
2017-10-04T04:56:53.516Z,7.07
2017-10-04T04:59:19.796Z,7.30
2017-10-04T05:01:46.080Z,7.18
2017-10-04T05:04:12.353Z,6.62
2017-10-04T05:06:38.635Z,7.05
2017-10-04T05:09:04.979Z,6.35
2017-10-04T05:11:31.765Z,6.30
2017-10-04T05:13:58.027Z,6.28
2017-10-04T05:16:24.678Z,5.82
2017-10-04T05:18:50.951Z,6.28
2017-10-04T05:21:17.242Z,6.00
2017-10-04T05:23:43.499Z,6.68
2017-10-04T05:26:09.779Z,6.12
2017-10-04T05:28:36.421Z,6.43
2017-10-04T05:31:03.079Z,5.80
2017-10-04T05:33:29.368Z,6.35
2017-10-04T05:35:55.632Z,6.97
2017-10-04T05:38:21.887Z,7.87
2017-10-04T05:40:48.182Z,6.75
2017-10-04T05:43:14.499Z,6.65
2017-10-04T05:45:41.152Z,6.53
2017-10-04T05:48:07.431Z,6.55
2017-10-04T05:50:33.688Z,7.07
2017-10-04T05:53:00.350Z,7.53
2017-10-04T05:55:26.607Z,8.10
2017-10-04T05:57:52.863Z,7.15
2017-10-04T06:00:19.158Z,6.70
2017-10-04T06:02:45.448Z,7.37
2017-10-04T06:05:12.073Z,7.15
2017-10-04T06:07:38.322Z,7.78
2017-10-04T06:10:04.960Z,6.62
2017-10-04T06:12:31.223Z,6.78
2017-10-04T06:14:57.519Z,6.70
2017-10-04T06:17:23.774Z,6.35
2017-10-04T06:19:50.043Z,6.22
2017-10-04T06:22:16.333Z,7.40
2017-10-04T06:24:42.607Z,8.80
2017-10-04T06:27:08.914Z,11.90
2017-10-04T06:29:35.235Z,13.62
2017-10-04T06:32:01.527Z,29.63
2017-10-04T06:34:27.800Z,31.02
2017-10-04T06:36:54.090Z,30.95
2017-10-04T06:39:20.482Z,31.48
2017-10-04T06:41:46.797Z,34.05
2017-10-04T06:44:13.069Z,31.10
2017-10-04T06:46:39.383Z,40.65
2017-10-04T06:49:05.634Z,24.45
2017-10-04T06:51:32.284Z,19.98
2017-10-04T06:53:58.563Z,7.32
2017-10-04T06:56:24.815Z,6.68
2017-10-04T06:58:51.471Z,8.00
2017-10-04T07:01:17.745Z,6.80
2017-10-04T07:03:44.022Z,6.15
2017-10-04T07:06:10.646Z,7.10
2017-10-04T07:08:37.301Z,6.47
2017-10-04T07:11:03.971Z,6.20
2017-10-04T07:13:30.266Z,7.18
2017-10-04T07:15:56.587Z,7.00
2017-10-04T07:18:23.232Z,6.50
2017-10-04T07:20:49.884Z,5.72
2017-10-04T07:23:23.012Z,6.00
2017-10-04T07:25:49.313Z,6.43
2017-10-04T07:28:15.548Z,6.40
2017-10-04T07:30:41.830Z,6.10
2017-10-04T07:33:08.106Z,5.95
2017-10-04T07:35:34.417Z,6.75
2017-10-04T07:38:00.679Z,8.52
2017-10-04T07:40:26.972Z,8.10
2017-10-04T07:42:53.246Z,7.30
2017-10-04T07:45:19.551Z,8.45
2017-10-04T07:47:45.852Z,16.10
2017-10-04T07:50:12.121Z,13.60
2017-10-04T07:52:38.395Z,11.82
2017-10-04T07:55:05.027Z,12.30
2017-10-04T07:57:31.311Z,9.65
2017-10-04T07:59:57.600Z,8.32
2017-10-04T08:02:23.860Z,9.02
2017-10-04T08:04:50.106Z,8.23
2017-10-04T08:07:16.379Z,8.93
2017-10-04T08:09:43.030Z,8.52
2017-10-04T08:12:10.091Z,7.30
2017-10-04T08:14:36.403Z,6.57
2017-10-04T08:17:02.647Z,7.22
2017-10-04T08:19:28.949Z,7.00
2017-10-04T08:21:55.589Z,6.15
2017-10-04T08:24:22.556Z,6.03
2017-10-04T08:26:48.807Z,7.28
2017-10-04T08:29:15.077Z,5.35
2017-10-04T08:31:41.397Z,5.55
2017-10-04T08:34:07.688Z,5.90
2017-10-04T08:36:33.965Z,6.20
2017-10-04T08:39:00.243Z,7.03
2017-10-04T08:41:26.491Z,7.07
2017-10-04T08:43:52.758Z,7.37
2017-10-04T08:46:19.026Z,8.02
2017-10-04T08:48:45.297Z,7.32
2017-10-04T08:51:11.579Z,8.30
2017-10-04T08:53:37.876Z,8.27
2017-10-04T08:56:04.219Z,8.38
2017-10-04T08:58:30.876Z,7.30
2017-10-04T09:00:57.187Z,6.90
2017-10-04T09:03:23.455Z,7.12
2017-10-04T09:08:40.268Z,8.05
2017-10-04T09:11:06.571Z,8.35
2017-10-04T09:13:33.209Z,6.60
2017-10-04T09:15:59.880Z,7.55
2017-10-04T09:18:26.169Z,8.75
2017-10-04T09:20:52.444Z,7.47
2017-10-04T09:23:18.723Z,8.63
2017-10-04T09:25:45.364Z,10.00
2017-10-04T09:28:12.016Z,7.68
2017-10-04T09:30:38.308Z,6.15
2017-10-04T09:33:04.587Z,6.43
2017-10-04T09:35:30.851Z,5.50
2017-10-04T09:37:57.119Z,5.32
2017-10-04T09:40:23.791Z,4.37
2017-10-04T09:42:50.071Z,4.43
2017-10-04T09:45:16.368Z,4.68
2017-10-04T09:47:42.651Z,4.68
2017-10-04T09:50:09.317Z,3.60
2017-10-04T09:52:35.606Z,3.57
2017-10-04T09:55:01.901Z,4.27
2017-10-04T09:57:28.160Z,4.13
2017-10-04T09:59:54.454Z,3.40
2017-10-04T10:02:20.730Z,3.27
2017-10-04T10:04:47.394Z,3.23
2017-10-04T10:07:13.680Z,3.37
2017-10-04T10:09:39.952Z,3.60
2017-10-04T10:12:06.238Z,3.80
2017-10-04T10:14:32.524Z,3.73
2017-10-04T10:16:58.800Z,3.40
2017-10-04T10:19:25.065Z,3.37
2017-10-04T10:21:51.351Z,2.90
2017-10-04T10:24:17.605Z,2.67
2017-10-04T10:26:43.914Z,2.90
2017-10-04T10:29:10.220Z,3.00
2017-10-04T10:31:36.559Z,3.20
2017-10-04T10:34:02.833Z,2.60
2017-10-04T10:36:29.487Z,2.47
2017-10-04T10:38:55.790Z,3.40
2017-10-04T10:41:22.092Z,2.40
2017-10-04T10:43:48.415Z,3.00
2017-10-04T10:46:14.704Z,2.50
2017-10-04T10:48:41.039Z,3.10
2017-10-04T10:51:07.315Z,2.40
2017-10-04T10:53:33.897Z,2.70
2017-10-04T10:56:00.193Z,2.63
2017-10-04T10:58:26.473Z,2.20
2017-10-04T11:00:52.755Z,2.00
2017-10-04T11:03:19.048Z,2.67
2017-10-04T11:05:45.359Z,2.10
2017-10-04T11:08:11.616Z,2.37
2017-10-04T11:10:37.891Z,3.00
2017-10-04T11:13:04.559Z,3.00
2017-10-04T11:15:30.899Z,3.50
2017-10-04T11:17:57.188Z,2.70
2017-10-04T11:20:23.485Z,2.30
2017-10-04T11:22:49.777Z,2.23
2017-10-04T11:25:16.048Z,2.33
2017-10-04T11:27:42.360Z,2.10
2017-10-04T11:30:08.667Z,2.93
2017-10-04T11:32:34.958Z,2.10
2017-10-04T11:35:01.245Z,2.50
2017-10-04T11:37:27.541Z,2.27
2017-10-04T11:39:54.237Z,2.40
2017-10-04T11:42:20.534Z,2.43
2017-10-04T11:44:46.907Z,2.70
2017-10-04T11:47:13.501Z,3.13
2017-10-04T11:49:39.835Z,2.63
2017-10-04T11:52:06.104Z,1.90
2017-10-04T11:54:32.435Z,2.20
2017-10-04T11:56:58.698Z,2.20
2017-10-04T11:59:25.354Z,1.90
2017-10-04T12:01:51.609Z,2.20
2017-10-04T12:04:17.918Z,2.30
2017-10-04T12:06:44.196Z,2.17
2017-10-04T12:09:10.504Z,2.23
2017-10-04T12:11:36.789Z,1.90
2017-10-04T12:14:03.089Z,2.20
2017-10-04T12:16:29.359Z,2.00
2017-10-04T12:18:55.636Z,1.97
2017-10-04T12:21:21.950Z,2.10
2017-10-04T12:23:48.215Z,2.93
2017-10-04T12:26:14.897Z,2.20
2017-10-04T12:28:41.198Z,2.13
2017-10-04T12:31:07.541Z,2.67
2017-10-04T12:33:33.844Z,2.23
2017-10-04T12:36:00.497Z,1.83
2017-10-04T12:38:26.774Z,2.23
2017-10-04T12:40:53.054Z,2.27
2017-10-04T12:43:19.332Z,1.60
2017-10-04T12:45:45.660Z,2.20
2017-10-04T12:48:11.957Z,1.53
2017-10-04T12:50:38.236Z,2.53
2017-10-04T12:53:04.548Z,1.80
2017-10-04T12:55:30.826Z,1.87
2017-10-04T12:57:57.140Z,2.30
2017-10-04T13:00:23.409Z,2.23
2017-10-04T13:02:49.714Z,1.97
2017-10-04T13:05:16.060Z,2.50
2017-10-04T13:07:42.361Z,3.10
2017-10-04T13:10:08.643Z,2.87
2017-10-04T13:12:34.923Z,1.80
2017-10-04T13:15:01.583Z,3.20
2017-10-04T13:17:28.132Z,3.60
2017-10-04T13:19:54.392Z,1.50
2017-10-04T13:22:20.671Z,2.33
2017-10-04T13:24:46.954Z,1.77
2017-10-04T13:27:13.305Z,2.00
2017-10-04T13:29:39.616Z,1.60
2017-10-04T13:32:05.901Z,1.40
2017-10-04T13:34:32.168Z,1.60
2017-10-04T13:36:59.128Z,1.77
2017-10-04T13:39:25.448Z,2.00
2017-10-04T13:41:51.715Z,2.17
2017-10-04T13:44:18.413Z,2.10
2017-10-04T13:46:44.699Z,1.87
2017-10-04T13:49:10.998Z,2.13
2017-10-04T13:51:37.330Z,2.10
2017-10-04T13:54:03.640Z,2.90
2017-10-04T13:56:29.936Z,2.57
2017-10-04T13:58:56.231Z,2.37
2017-10-04T14:01:22.919Z,2.10
2017-10-04T14:03:49.193Z,1.80
2017-10-04T14:06:15.833Z,2.50
2017-10-04T14:08:49.511Z,1.50
2017-10-04T14:11:15.832Z,2.13
2017-10-04T14:13:42.121Z,2.10
2017-10-04T14:16:08.433Z,1.97
2017-10-04T14:18:35.113Z,2.10
2017-10-04T14:21:01.429Z,2.23
2017-10-04T14:23:27.731Z,2.37
2017-10-04T14:25:54.410Z,1.80
2017-10-04T14:28:20.691Z,1.53
2017-10-04T14:30:47.375Z,2.13
2017-10-04T14:33:13.691Z,1.83
2017-10-04T14:35:39.966Z,1.50
2017-10-04T14:38:06.266Z,1.60
2017-10-04T14:40:32.533Z,1.40
2017-10-04T14:42:58.807Z,2.00
2017-10-04T14:45:25.130Z,1.60
2017-10-04T14:47:51.780Z,1.40
2017-10-04T14:50:18.052Z,1.70
2017-10-04T14:52:44.321Z,2.50
2017-10-04T14:55:10.609Z,2.27
2017-10-04T14:57:36.860Z,2.10
2017-10-04T15:00:03.527Z,2.40
2017-10-04T15:02:29.863Z,2.40
2017-10-04T15:04:56.153Z,1.80
2017-10-04T15:07:22.494Z,3.20
2017-10-04T15:09:49.166Z,3.30
2017-10-04T15:12:15.446Z,2.43
2017-10-04T15:14:41.758Z,1.60
2017-10-04T15:17:08.055Z,1.80
2017-10-04T15:19:34.660Z,1.37
2017-10-04T15:22:00.964Z,1.90
2017-10-04T15:24:27.240Z,1.80
2017-10-04T15:26:53.552Z,1.87
2017-10-04T15:29:19.821Z,2.13
2017-10-04T15:31:46.191Z,1.57
2017-10-04T15:34:12.490Z,1.73
2017-10-04T15:36:38.828Z,1.90
2017-10-04T15:39:05.161Z,2.10
2017-10-04T15:41:31.472Z,1.80
2017-10-04T15:43:58.553Z,2.00
2017-10-04T15:46:24.867Z,1.80
2017-10-04T15:48:51.151Z,1.60
2017-10-04T15:51:17.479Z,1.57
2017-10-04T15:53:43.792Z,2.77
2017-10-04T15:56:10.423Z,2.70
2017-10-04T15:58:37.090Z,2.50
2017-10-04T16:01:03.372Z,2.90
2017-10-04T16:03:29.662Z,1.60
2017-10-04T16:05:55.969Z,1.83
2017-10-04T16:08:22.295Z,1.90
2017-10-04T16:10:48.606Z,1.53
2017-10-04T16:13:14.863Z,1.63
2017-10-04T16:15:41.164Z,2.30
2017-10-04T16:18:07.471Z,2.40
2017-10-04T16:20:33.793Z,1.83
2017-10-04T16:23:00.067Z,2.20
2017-10-04T16:25:26.374Z,2.87
2017-10-04T16:27:52.688Z,2.03
2017-10-04T16:30:19.033Z,1.93
2017-10-04T16:32:45.347Z,2.27
2017-10-04T16:35:11.646Z,1.83
2017-10-04T16:37:37.936Z,2.20
2017-10-04T16:40:04.598Z,4.30
2017-10-04T16:42:30.941Z,4.50
2017-10-04T16:44:58.183Z,3.00
2017-10-04T16:47:24.473Z,3.10
2017-10-04T16:49:50.779Z,2.17
2017-10-04T16:52:17.044Z,2.40
2017-10-04T16:54:43.335Z,2.30
2017-10-04T16:57:09.621Z,2.70
2017-10-04T16:59:36.276Z,3.10
2017-10-04T17:02:02.879Z,2.83
2017-10-04T17:04:29.556Z,2.85
2017-10-04T17:06:55.851Z,2.47
2017-10-04T17:09:22.856Z,2.90
2017-10-04T17:11:49.130Z,2.30
2017-10-04T17:14:15.458Z,1.77
2017-10-04T17:16:42.133Z,2.72
2017-10-04T17:19:08.716Z,2.70
2017-10-04T17:21:35.065Z,2.80
2017-10-04T17:24:01.878Z,4.10
2017-10-04T17:26:28.198Z,7.12
2017-10-04T17:28:54.469Z,8.00
2017-10-04T17:31:21.557Z,6.78
2017-10-04T17:33:48.169Z,14.93
2017-10-04T17:36:14.530Z,14.27
2017-10-04T17:38:40.865Z,11.23
2017-10-04T17:41:07.166Z,11.60
2017-10-04T17:43:33.484Z,8.20
2017-10-04T17:46:00.040Z,8.02
2017-10-04T17:48:26.649Z,9.00
2017-10-04T17:50:53.338Z,8.27
2017-10-04T17:53:20.386Z,8.50
2017-10-04T17:55:47.488Z,6.72
2017-10-04T17:58:14.135Z,6.75
2017-10-04T18:00:40.457Z,7.25
2017-10-04T18:03:06.848Z,4.50
2017-10-04T18:05:33.164Z,5.75
2017-10-04T18:07:59.833Z,6.22
2017-10-04T18:10:26.368Z,7.47
2017-10-04T18:12:53.293Z,7.05
2017-10-04T18:15:19.951Z,11.48
2017-10-04T18:17:47.402Z,9.93
2017-10-04T18:20:14.901Z,8.98
2017-10-04T18:22:42.348Z,6.03
2017-10-04T18:25:09.015Z,5.25
2017-10-04T18:27:35.400Z,4.53
2017-10-04T18:30:03.050Z,5.53
2017-10-04T18:32:29.900Z,4.78
2017-10-04T18:34:56.822Z,5.25
2017-10-04T18:37:23.367Z,4.93
2017-10-04T18:39:50.130Z,5.07
2017-10-04T18:42:16.528Z,5.15
2017-10-04T18:44:43.854Z,6.57
2017-10-04T18:47:10.403Z,5.57
2017-10-04T18:49:36.933Z,5.35
2017-10-04T18:52:04.268Z,5.50
2017-10-04T18:54:30.777Z,5.65
2017-10-04T18:56:57.376Z,6.82
2017-10-04T18:59:24.195Z,7.90
2017-10-04T19:01:51.402Z,6.10
2017-10-04T19:04:18.573Z,7.28
2017-10-04T19:06:44.981Z,7.43
2017-10-04T19:09:11.386Z,7.22
2017-10-04T19:11:37.824Z,6.97
2017-10-04T19:14:04.326Z,5.62
2017-10-04T19:16:34.822Z,6.37
2017-10-04T19:19:01.843Z,6.45
2017-10-04T19:21:28.195Z,6.22
2017-10-04T19:23:54.877Z,6.10
2017-10-04T19:26:21.357Z,5.43
2017-10-04T19:28:47.771Z,5.90
2017-10-04T19:31:14.656Z,5.45
2017-10-04T19:33:41.565Z,4.87
2017-10-04T19:36:08.385Z,4.85
2017-10-04T19:38:34.845Z,5.25
2017-10-04T19:41:02.457Z,4.78
2017-10-04T19:43:32.241Z,4.55
2017-10-04T19:45:58.949Z,5.45
2017-10-04T22:49:34.929Z,4.28
